sensor_id;sensor_type;location;lat;lon;timestamp;P1;durP1;ratioP1;P2;durP2;ratioP2
2680;SDS011;1350;42.134;24.708;2022-11-12T00:00:47;6.20;;;3.17;;
2680;SDS011;1350;42.134;24.708;2022-11-12T00:03:14;8.75;;;3.65;;
2680;SDS011;1350;42.134;24.708;2022-11-12T00:05:42;9.90;;;3.58;;
2680;SDS011;1350;42.134;24.708;2022-11-12T00:08:09;7.63;;;3.00;;
2680;SDS011;1350;42.134;24.708;2022-11-12T00:10:36;5.88;;;3.03;;
2680;SDS011;1350;42.134;24.708;2022-11-12T00:13:03;7.53;;;3.45;;
2680;SDS011;1350;42.134;24.708;2022-11-12T00:15:31;6.90;;;3.83;;
2680;SDS011;1350;42.134;24.708;2022-11-12T00:17:58;7.65;;;3.90;;
2680;SDS011;1350;42.134;24.708;2022-11-12T00:20:24;7.97;;;3.70;;
2680;SDS011;1350;42.134;24.708;2022-11-12T00:22:51;6.38;;;4.13;;
2680;SDS011;1350;42.134;24.708;2022-11-12T00:25:18;6.78;;;3.97;;
2680;SDS011;1350;42.134;24.708;2022-11-12T00:27:45;7.07;;;4.10;;
2680;SDS011;1350;42.134;24.708;2022-11-12T00:30:11;6.88;;;3.63;;
2680;SDS011;1350;42.134;24.708;2022-11-12T00:32:40;6.82;;;3.55;;
2680;SDS011;1350;42.134;24.708;2022-11-12T00:35:07;6.45;;;3.78;;
2680;SDS011;1350;42.134;24.708;2022-11-12T00:37:34;11.23;;;4.85;;
2680;SDS011;1350;42.134;24.708;2022-11-12T00:40:01;9.18;;;4.80;;
2680;SDS011;1350;42.134;24.708;2022-11-12T00:42:28;8.73;;;4.45;;
2680;SDS011;1350;42.134;24.708;2022-11-12T00:44:55;8.65;;;4.90;;
2680;SDS011;1350;42.134;24.708;2022-11-12T00:47:21;8.40;;;4.70;;
2680;SDS011;1350;42.134;24.708;2022-11-12T00:49:49;8.75;;;4.30;;
2680;SDS011;1350;42.134;24.708;2022-11-12T00:52:16;7.93;;;5.53;;
2680;SDS011;1350;42.134;24.708;2022-11-12T00:54:43;7.15;;;4.40;;
2680;SDS011;1350;42.134;24.708;2022-11-12T00:57:09;9.30;;;5.07;;
2680;SDS011;1350;42.134;24.708;2022-11-12T00:59:36;7.47;;;4.72;;
2680;SDS011;1350;42.134;24.708;2022-11-12T01:02:03;9.00;;;4.75;;
2680;SDS011;1350;42.134;24.708;2022-11-12T01:04:30;9.60;;;6.10;;
2680;SDS011;1350;42.134;24.708;2022-11-12T01:06:58;9.35;;;4.85;;
2680;SDS011;1350;42.134;24.708;2022-11-12T01:09:25;8.80;;;5.20;;
2680;SDS011;1350;42.134;24.708;2022-11-12T01:11:51;10.98;;;4.72;;
2680;SDS011;1350;42.134;24.708;2022-11-12T01:14:18;7.90;;;4.68;;
2680;SDS011;1350;42.134;24.708;2022-11-12T01:16:45;9.57;;;5.85;;
2680;SDS011;1350;42.134;24.708;2022-11-12T01:19:11;12.35;;;6.40;;
2680;SDS011;1350;42.134;24.708;2022-11-12T01:21:39;9.30;;;5.68;;
2680;SDS011;1350;42.134;24.708;2022-11-12T01:24:10;14.77;;;7.55;;
2680;SDS011;1350;42.134;24.708;2022-11-12T01:26:37;11.48;;;6.30;;
2680;SDS011;1350;42.134;24.708;2022-11-12T01:29:04;8.60;;;5.95;;
2680;SDS011;1350;42.134;24.708;2022-11-12T01:31:31;15.52;;;7.18;;
2680;SDS011;1350;42.134;24.708;2022-11-12T01:34:00;9.52;;;5.00;;
2680;SDS011;1350;42.134;24.708;2022-11-12T01:36:30;11.18;;;7.00;;
2680;SDS011;1350;42.134;24.708;2022-11-12T01:38:58;11.85;;;7.07;;
2680;SDS011;1350;42.134;24.708;2022-11-12T01:41:28;13.63;;;7.32;;
2680;SDS011;1350;42.134;24.708;2022-11-12T01:44:08;12.32;;;6.78;;
2680;SDS011;1350;42.134;24.708;2022-11-12T01:46:50;12.05;;;6.10;;
2680;SDS011;1350;42.134;24.708;2022-11-12T01:49:25;10.40;;;6.18;;
2680;SDS011;1350;42.134;24.708;2022-11-12T01:51:55;10.70;;;6.43;;
2680;SDS011;1350;42.134;24.708;2022-11-12T01:54:26;10.23;;;6.78;;
2680;SDS011;1350;42.134;24.708;2022-11-12T01:56:55;9.30;;;5.97;;
2680;SDS011;1350;42.134;24.708;2022-11-12T01:59:24;10.68;;;5.93;;
2680;SDS011;1350;42.134;24.708;2022-11-12T02:01:55;11.48;;;7.63;;
2680;SDS011;1350;42.134;24.708;2022-11-12T02:04:22;11.10;;;6.78;;
2680;SDS011;1350;42.134;24.708;2022-11-12T02:06:50;10.68;;;6.05;;
2680;SDS011;1350;42.134;24.708;2022-11-12T02:09:19;10.43;;;7.40;;
2680;SDS011;1350;42.134;24.708;2022-11-12T02:11:46;9.40;;;6.35;;
2680;SDS011;1350;42.134;24.708;2022-11-12T02:14:14;12.77;;;7.35;;
2680;SDS011;1350;42.134;24.708;2022-11-12T02:16:41;10.93;;;7.35;;
2680;SDS011;1350;42.134;24.708;2022-11-12T02:19:11;10.50;;;6.35;;
2680;SDS011;1350;42.134;24.708;2022-11-12T02:21:40;12.65;;;7.38;;
2680;SDS011;1350;42.134;24.708;2022-11-12T02:26:56;11.13;;;7.50;;
2680;SDS011;1350;42.134;24.708;2022-11-12T02:29:23;10.73;;;7.82;;
2680;SDS011;1350;42.134;24.708;2022-11-12T02:31:50;9.68;;;6.40;;
2680;SDS011;1350;42.134;24.708;2022-11-12T02:34:17;10.85;;;6.82;;
2680;SDS011;1350;42.134;24.708;2022-11-12T02:36:45;10.20;;;7.10;;
2680;SDS011;1350;42.134;24.708;2022-11-12T02:39:12;10.50;;;7.15;;
2680;SDS011;1350;42.134;24.708;2022-11-12T02:41:38;13.30;;;8.00;;
2680;SDS011;1350;42.134;24.708;2022-11-12T02:44:05;14.60;;;7.38;;
2680;SDS011;1350;42.134;24.708;2022-11-12T02:46:32;12.13;;;6.70;;
2680;SDS011;1350;42.134;24.708;2022-11-12T02:48:59;11.32;;;7.60;;
2680;SDS011;1350;42.134;24.708;2022-11-12T02:51:25;12.15;;;7.78;;
2680;SDS011;1350;42.134;24.708;2022-11-12T02:53:53;11.50;;;8.38;;
2680;SDS011;1350;42.134;24.708;2022-11-12T02:56:20;12.70;;;8.57;;
2680;SDS011;1350;42.134;24.708;2022-11-12T02:58:47;15.18;;;7.93;;
2680;SDS011;1350;42.134;24.708;2022-11-12T03:01:13;13.40;;;6.75;;
2680;SDS011;1350;42.134;24.708;2022-11-12T03:03:40;12.48;;;7.55;;
2680;SDS011;1350;42.134;24.708;2022-11-12T03:06:07;10.35;;;7.32;;
2680;SDS011;1350;42.134;24.708;2022-11-12T03:08:33;14.00;;;9.35;;
2680;SDS011;1350;42.134;24.708;2022-11-12T03:11:06;12.98;;;7.85;;
2680;SDS011;1350;42.134;24.708;2022-11-12T03:13:33;14.30;;;8.32;;
2680;SDS011;1350;42.134;24.708;2022-11-12T03:16:00;12.55;;;8.50;;
2680;SDS011;1350;42.134;24.708;2022-11-12T03:18:27;12.35;;;7.75;;
2680;SDS011;1350;42.134;24.708;2022-11-12T03:20:54;16.17;;;9.40;;
2680;SDS011;1350;42.134;24.708;2022-11-12T03:23:21;13.02;;;8.18;;
2680;SDS011;1350;42.134;24.708;2022-11-12T03:25:48;15.60;;;10.10;;
2680;SDS011;1350;42.134;24.708;2022-11-12T03:28:16;10.38;;;7.65;;
2680;SDS011;1350;42.134;24.708;2022-11-12T03:30:43;14.88;;;9.35;;
2680;SDS011;1350;42.134;24.708;2022-11-12T03:33:11;19.52;;;9.63;;
2680;SDS011;1350;42.134;24.708;2022-11-12T03:35:39;15.98;;;9.25;;
2680;SDS011;1350;42.134;24.708;2022-11-12T03:38:06;14.35;;;9.57;;
2680;SDS011;1350;42.134;24.708;2022-11-12T03:40:33;14.30;;;10.80;;
2680;SDS011;1350;42.134;24.708;2022-11-12T03:43:00;14.38;;;8.80;;
2680;SDS011;1350;42.134;24.708;2022-11-12T03:45:28;12.15;;;8.07;;
2680;SDS011;1350;42.134;24.708;2022-11-12T03:47:55;14.05;;;8.68;;
2680;SDS011;1350;42.134;24.708;2022-11-12T03:50:24;16.50;;;10.00;;
2680;SDS011;1350;42.134;24.708;2022-11-12T03:52:53;13.27;;;8.52;;
2680;SDS011;1350;42.134;24.708;2022-11-12T03:55:22;14.23;;;10.55;;
2680;SDS011;1350;42.134;24.708;2022-11-12T03:57:51;18.80;;;9.60;;
2680;SDS011;1350;42.134;24.708;2022-11-12T04:00:19;12.27;;;8.73;;
2680;SDS011;1350;42.134;24.708;2022-11-12T04:02:48;11.50;;;7.43;;
2680;SDS011;1350;42.134;24.708;2022-11-12T04:05:15;13.30;;;8.90;;
2680;SDS011;1350;42.134;24.708;2022-11-12T04:07:56;15.27;;;9.93;;
2680;SDS011;1350;42.134;24.708;2022-11-12T04:10:41;14.10;;;9.32;;
2680;SDS011;1350;42.134;24.708;2022-11-12T04:13:08;14.23;;;9.13;;
2680;SDS011;1350;42.134;24.708;2022-11-12T04:15:54;12.73;;;9.00;;
2680;SDS011;1350;42.134;24.708;2022-11-12T04:18:46;13.35;;;10.35;;
2680;SDS011;1350;42.134;24.708;2022-11-12T04:21:32;15.65;;;10.40;;
2680;SDS011;1350;42.134;24.708;2022-11-12T04:24:20;14.60;;;9.25;;
2680;SDS011;1350;42.134;24.708;2022-11-12T04:27:07;13.95;;;8.90;;
2680;SDS011;1350;42.134;24.708;2022-11-12T04:29:35;14.95;;;11.00;;
2680;SDS011;1350;42.134;24.708;2022-11-12T04:32:20;12.93;;;8.07;;
2680;SDS011;1350;42.134;24.708;2022-11-12T04:34:48;14.50;;;10.10;;
2680;SDS011;1350;42.134;24.708;2022-11-12T04:37:15;14.45;;;9.23;;
2680;SDS011;1350;42.134;24.708;2022-11-12T04:39:42;15.05;;;9.80;;
2680;SDS011;1350;42.134;24.708;2022-11-12T04:42:09;14.90;;;10.20;;
2680;SDS011;1350;42.134;24.708;2022-11-12T04:44:53;13.82;;;10.30;;
2680;SDS011;1350;42.134;24.708;2022-11-12T04:47:28;13.40;;;9.68;;
2680;SDS011;1350;42.134;24.708;2022-11-12T04:49:58;16.50;;;9.68;;
2680;SDS011;1350;42.134;24.708;2022-11-12T04:52:25;15.18;;;9.75;;
2680;SDS011;1350;42.134;24.708;2022-11-12T04:54:53;13.65;;;9.70;;
2680;SDS011;1350;42.134;24.708;2022-11-12T04:57:20;14.82;;;9.70;;
2680;SDS011;1350;42.134;24.708;2022-11-12T04:59:47;13.23;;;9.88;;
2680;SDS011;1350;42.134;24.708;2022-11-12T05:02:14;13.07;;;10.07;;
2680;SDS011;1350;42.134;24.708;2022-11-12T05:04:41;16.15;;;11.02;;
2680;SDS011;1350;42.134;24.708;2022-11-12T05:07:09;15.23;;;10.90;;
2680;SDS011;1350;42.134;24.708;2022-11-12T05:09:36;16.25;;;11.05;;
2680;SDS011;1350;42.134;24.708;2022-11-12T05:12:03;22.73;;;11.18;;
2680;SDS011;1350;42.134;24.708;2022-11-12T05:14:30;15.77;;;11.88;;
2680;SDS011;1350;42.134;24.708;2022-11-12T05:16:57;15.60;;;11.85;;
2680;SDS011;1350;42.134;24.708;2022-11-12T05:19:24;18.77;;;12.48;;
2680;SDS011;1350;42.134;24.708;2022-11-12T05:21:51;19.60;;;12.40;;
2680;SDS011;1350;42.134;24.708;2022-11-12T05:24:35;19.45;;;11.93;;
2680;SDS011;1350;42.134;24.708;2022-11-12T05:27:06;23.20;;;14.63;;
2680;SDS011;1350;42.134;24.708;2022-11-12T05:29:34;21.13;;;12.32;;
2680;SDS011;1350;42.134;24.708;2022-11-12T05:32:01;21.85;;;13.32;;
2680;SDS011;1350;42.134;24.708;2022-11-12T05:34:28;19.38;;;13.85;;
2680;SDS011;1350;42.134;24.708;2022-11-12T05:36:55;20.80;;;13.48;;
2680;SDS011;1350;42.134;24.708;2022-11-12T05:39:22;20.10;;;14.00;;
2680;SDS011;1350;42.134;24.708;2022-11-12T05:41:50;18.48;;;15.02;;
2680;SDS011;1350;42.134;24.708;2022-11-12T05:44:17;21.20;;;15.00;;
2680;SDS011;1350;42.134;24.708;2022-11-12T05:46:44;24.42;;;15.85;;
2680;SDS011;1350;42.134;24.708;2022-11-12T05:49:11;24.35;;;15.30;;
2680;SDS011;1350;42.134;24.708;2022-11-12T05:51:38;19.48;;;13.73;;
2680;SDS011;1350;42.134;24.708;2022-11-12T05:54:05;28.30;;;17.35;;
2680;SDS011;1350;42.134;24.708;2022-11-12T05:56:32;23.73;;;16.23;;
2680;SDS011;1350;42.134;24.708;2022-11-12T05:59:00;21.33;;;14.90;;
2680;SDS011;1350;42.134;24.708;2022-11-12T06:01:28;21.02;;;16.00;;
2680;SDS011;1350;42.134;24.708;2022-11-12T06:03:55;22.80;;;16.30;;
2680;SDS011;1350;42.134;24.708;2022-11-12T06:06:21;23.95;;;15.80;;
2680;SDS011;1350;42.134;24.708;2022-11-12T06:08:48;21.73;;;15.98;;
2680;SDS011;1350;42.134;24.708;2022-11-12T06:11:15;24.17;;;15.95;;
2680;SDS011;1350;42.134;24.708;2022-11-12T06:13:42;24.95;;;17.80;;
2680;SDS011;1350;42.134;24.708;2022-11-12T06:16:10;25.80;;;17.05;;
2680;SDS011;1350;42.134;24.708;2022-11-12T06:18:37;23.75;;;16.48;;
2680;SDS011;1350;42.134;24.708;2022-11-12T06:21:04;28.15;;;17.02;;
2680;SDS011;1350;42.134;24.708;2022-11-12T06:23:44;25.55;;;17.27;;
2680;SDS011;1350;42.134;24.708;2022-11-12T06:26:11;21.90;;;14.40;;
2680;SDS011;1350;42.134;24.708;2022-11-12T06:28:38;25.05;;;16.08;;
2680;SDS011;1350;42.134;24.708;2022-11-12T06:31:05;25.15;;;15.65;;
2680;SDS011;1350;42.134;24.708;2022-11-12T06:33:33;25.30;;;15.38;;
2680;SDS011;1350;42.134;24.708;2022-11-12T06:36:01;23.58;;;15.50;;
2680;SDS011;1350;42.134;24.708;2022-11-12T06:38:29;22.83;;;14.80;;
2680;SDS011;1350;42.134;24.708;2022-11-12T06:40:56;26.85;;;14.60;;
2680;SDS011;1350;42.134;24.708;2022-11-12T06:43:23;22.52;;;13.50;;
2680;SDS011;1350;42.134;24.708;2022-11-12T06:45:50;22.92;;;14.48;;
2680;SDS011;1350;42.134;24.708;2022-11-12T06:48:17;16.20;;;10.82;;
2680;SDS011;1350;42.134;24.708;2022-11-12T06:50:45;22.10;;;11.32;;
2680;SDS011;1350;42.134;24.708;2022-11-12T06:53:12;20.60;;;9.45;;
2680;SDS011;1350;42.134;24.708;2022-11-12T06:55:38;18.10;;;9.77;;
2680;SDS011;1350;42.134;24.708;2022-11-12T06:58:05;13.00;;;8.65;;
2680;SDS011;1350;42.134;24.708;2022-11-12T07:00:32;11.00;;;7.70;;
2680;SDS011;1350;42.134;24.708;2022-11-12T07:02:58;16.92;;;7.38;;
2680;SDS011;1350;42.134;24.708;2022-11-12T07:05:25;11.63;;;6.00;;
2680;SDS011;1350;42.134;24.708;2022-11-12T07:07:54;9.07;;;5.63;;
2680;SDS011;1350;42.134;24.708;2022-11-12T07:10:21;13.25;;;5.80;;
2680;SDS011;1350;42.134;24.708;2022-11-12T07:12:48;10.40;;;5.63;;
2680;SDS011;1350;42.134;24.708;2022-11-12T07:15:15;9.15;;;5.80;;
2680;SDS011;1350;42.134;24.708;2022-11-12T07:17:43;11.57;;;6.07;;
2680;SDS011;1350;42.134;24.708;2022-11-12T07:20:11;11.77;;;4.60;;
2680;SDS011;1350;42.134;24.708;2022-11-12T07:22:38;8.77;;;5.13;;
2680;SDS011;1350;42.134;24.708;2022-11-12T07:25:06;7.70;;;4.75;;
2680;SDS011;1350;42.134;24.708;2022-11-12T07:27:34;8.50;;;5.07;;
2680;SDS011;1350;42.134;24.708;2022-11-12T07:30:00;9.60;;;4.07;;
2680;SDS011;1350;42.134;24.708;2022-11-12T07:32:27;7.72;;;4.38;;
2680;SDS011;1350;42.134;24.708;2022-11-12T07:34:55;7.90;;;4.15;;
2680;SDS011;1350;42.134;24.708;2022-11-12T07:37:21;7.50;;;4.32;;
2680;SDS011;1350;42.134;24.708;2022-11-12T07:39:48;6.38;;;3.95;;
2680;SDS011;1350;42.134;24.708;2022-11-12T07:42:16;14.73;;;3.60;;
2680;SDS011;1350;42.134;24.708;2022-11-12T07:44:43;6.28;;;3.40;;
2680;SDS011;1350;42.134;24.708;2022-11-12T07:47:09;8.70;;;4.45;;
2680;SDS011;1350;42.134;24.708;2022-11-12T07:49:36;5.72;;;2.92;;
2680;SDS011;1350;42.134;24.708;2022-11-12T07:52:03;6.72;;;3.60;;
2680;SDS011;1350;42.134;24.708;2022-11-12T07:54:30;7.65;;;4.13;;
2680;SDS011;1350;42.134;24.708;2022-11-12T07:56:57;9.02;;;5.00;;
2680;SDS011;1350;42.134;24.708;2022-11-12T07:59:25;9.32;;;6.40;;
2680;SDS011;1350;42.134;24.708;2022-11-12T08:01:52;7.70;;;4.18;;
2680;SDS011;1350;42.134;24.708;2022-11-12T08:04:18;6.63;;;3.83;;
2680;SDS011;1350;42.134;24.708;2022-11-12T08:06:45;7.30;;;4.28;;
2680;SDS011;1350;42.134;24.708;2022-11-12T08:09:13;17.33;;;12.85;;
2680;SDS011;1350;42.134;24.708;2022-11-12T08:11:40;9.55;;;5.55;;
2680;SDS011;1350;42.134;24.708;2022-11-12T08:14:07;12.50;;;6.40;;
2680;SDS011;1350;42.134;24.708;2022-11-12T08:16:35;9.95;;;6.38;;
2680;SDS011;1350;42.134;24.708;2022-11-12T08:19:02;15.55;;;5.90;;
2680;SDS011;1350;42.134;24.708;2022-11-12T08:21:28;16.40;;;8.88;;
2680;SDS011;1350;42.134;24.708;2022-11-12T08:23:55;10.95;;;6.10;;
2680;SDS011;1350;42.134;24.708;2022-11-12T08:26:22;8.50;;;4.28;;
2680;SDS011;1350;42.134;24.708;2022-11-12T08:28:50;8.15;;;5.03;;
2680;SDS011;1350;42.134;24.708;2022-11-12T08:31:17;8.15;;;4.35;;
2680;SDS011;1350;42.134;24.708;2022-11-12T08:33:47;8.15;;;4.55;;
2680;SDS011;1350;42.134;24.708;2022-11-12T08:36:15;6.95;;;3.85;;
2680;SDS011;1350;42.134;24.708;2022-11-12T08:38:42;9.48;;;4.65;;
2680;SDS011;1350;42.134;24.708;2022-11-12T08:41:10;8.48;;;4.60;;
2680;SDS011;1350;42.134;24.708;2022-11-12T08:43:38;7.50;;;5.15;;
2680;SDS011;1350;42.134;24.708;2022-11-12T08:46:06;11.65;;;5.40;;
2680;SDS011;1350;42.134;24.708;2022-11-12T08:48:35;9.05;;;5.28;;
2680;SDS011;1350;42.134;24.708;2022-11-12T08:51:05;9.55;;;4.88;;
2680;SDS011;1350;42.134;24.708;2022-11-12T08:53:32;8.52;;;4.60;;
2680;SDS011;1350;42.134;24.708;2022-11-12T08:55:59;21.67;;;13.68;;
2680;SDS011;1350;42.134;24.708;2022-11-12T08:58:26;8.02;;;4.72;;
2680;SDS011;1350;42.134;24.708;2022-11-12T09:00:53;7.40;;;3.70;;
2680;SDS011;1350;42.134;24.708;2022-11-12T09:03:21;7.40;;;3.55;;
2680;SDS011;1350;42.134;24.708;2022-11-12T09:05:49;6.30;;;3.55;;
2680;SDS011;1350;42.134;24.708;2022-11-12T09:08:22;6.28;;;3.05;;
2680;SDS011;1350;42.134;24.708;2022-11-12T09:10:50;7.20;;;3.17;;
2680;SDS011;1350;42.134;24.708;2022-11-12T09:13:17;5.80;;;2.63;;
2680;SDS011;1350;42.134;24.708;2022-11-12T09:15:44;5.80;;;2.30;;
2680;SDS011;1350;42.134;24.708;2022-11-12T09:18:12;6.90;;;2.85;;
2680;SDS011;1350;42.134;24.708;2022-11-12T09:20:40;6.55;;;2.80;;
2680;SDS011;1350;42.134;24.708;2022-11-12T09:23:09;6.03;;;2.88;;
2680;SDS011;1350;42.134;24.708;2022-11-12T09:25:38;7.18;;;3.75;;
2680;SDS011;1350;42.134;24.708;2022-11-12T09:28:06;7.57;;;4.72;;
2680;SDS011;1350;42.134;24.708;2022-11-12T09:30:34;8.80;;;5.20;;
2680;SDS011;1350;42.134;24.708;2022-11-12T09:33:02;10.18;;;5.32;;
2680;SDS011;1350;42.134;24.708;2022-11-12T09:35:29;9.10;;;4.60;;
2680;SDS011;1350;42.134;24.708;2022-11-12T09:37:56;8.73;;;5.13;;
2680;SDS011;1350;42.134;24.708;2022-11-12T09:40:24;8.00;;;4.97;;
2680;SDS011;1350;42.134;24.708;2022-11-12T09:43:09;9.10;;;4.65;;
2680;SDS011;1350;42.134;24.708;2022-11-12T09:45:42;8.43;;;4.45;;
2680;SDS011;1350;42.134;24.708;2022-11-12T09:48:10;8.80;;;3.20;;
2680;SDS011;1350;42.134;24.708;2022-11-12T09:50:46;7.65;;;4.10;;
2680;SDS011;1350;42.134;24.708;2022-11-12T09:53:21;7.05;;;4.13;;
2680;SDS011;1350;42.134;24.708;2022-11-12T09:55:53;11.15;;;4.78;;
2680;SDS011;1350;42.134;24.708;2022-11-12T09:58:21;8.30;;;4.88;;
2680;SDS011;1350;42.134;24.708;2022-11-12T10:00:51;8.32;;;5.35;;
2680;SDS011;1350;42.134;24.708;2022-11-12T10:03:23;8.27;;;5.25;;
2680;SDS011;1350;42.134;24.708;2022-11-12T10:05:59;7.80;;;4.65;;
2680;SDS011;1350;42.134;24.708;2022-11-12T10:08:31;10.20;;;6.30;;
2680;SDS011;1350;42.134;24.708;2022-11-12T10:11:09;6.00;;;3.97;;
2680;SDS011;1350;42.134;24.708;2022-11-12T10:13:52;7.07;;;4.35;;
2680;SDS011;1350;42.134;24.708;2022-11-12T10:16:38;9.38;;;4.38;;
2680;SDS011;1350;42.134;24.708;2022-11-12T10:19:25;7.78;;;4.57;;
2680;SDS011;1350;42.134;24.708;2022-11-12T10:22:06;7.78;;;4.68;;
2680;SDS011;1350;42.134;24.708;2022-11-12T10:24:44;6.75;;;3.65;;
2680;SDS011;1350;42.134;24.708;2022-11-12T10:27:14;5.97;;;3.90;;
2680;SDS011;1350;42.134;24.708;2022-11-12T10:29:47;8.20;;;3.38;;
2680;SDS011;1350;42.134;24.708;2022-11-12T10:32:19;10.15;;;4.40;;
2680;SDS011;1350;42.134;24.708;2022-11-12T10:34:45;7.72;;;4.60;;
2680;SDS011;1350;42.134;24.708;2022-11-12T10:37:13;6.72;;;4.07;;
2680;SDS011;1350;42.134;24.708;2022-11-12T10:39:45;12.13;;;4.40;;
2680;SDS011;1350;42.134;24.708;2022-11-12T10:42:13;8.38;;;4.28;;
2680;SDS011;1350;42.134;24.708;2022-11-12T10:44:42;7.40;;;4.10;;
2680;SDS011;1350;42.134;24.708;2022-11-12T10:47:17;7.22;;;3.90;;
2680;SDS011;1350;42.134;24.708;2022-11-12T10:49:58;8.55;;;4.40;;
2680;SDS011;1350;42.134;24.708;2022-11-12T10:52:30;7.80;;;4.53;;
2680;SDS011;1350;42.134;24.708;2022-11-12T10:55:05;6.68;;;3.75;;
2680;SDS011;1350;42.134;24.708;2022-11-12T10:57:39;7.55;;;4.20;;
2680;SDS011;1350;42.134;24.708;2022-11-12T11:00:07;6.28;;;3.38;;
2680;SDS011;1350;42.134;24.708;2022-11-12T11:02:46;7.50;;;3.78;;
2680;SDS011;1350;42.134;24.708;2022-11-12T11:05:29;7.35;;;4.03;;
2680;SDS011;1350;42.134;24.708;2022-11-12T11:07:58;6.47;;;3.78;;
2680;SDS011;1350;42.134;24.708;2022-11-12T11:10:26;6.93;;;3.55;;
2680;SDS011;1350;42.134;24.708;2022-11-12T11:15:58;6.53;;;4.35;;
2680;SDS011;1350;42.134;24.708;2022-11-12T11:18:28;7.60;;;4.25;;
2680;SDS011;1350;42.134;24.708;2022-11-12T11:21:05;10.10;;;5.95;;
2680;SDS011;1350;42.134;24.708;2022-11-12T11:23:40;10.45;;;5.35;;
2680;SDS011;1350;42.134;24.708;2022-11-12T11:26:14;7.97;;;4.70;;
2680;SDS011;1350;42.134;24.708;2022-11-12T11:28:58;10.77;;;7.28;;
2680;SDS011;1350;42.134;24.708;2022-11-12T11:31:42;8.55;;;5.57;;
2680;SDS011;1350;42.134;24.708;2022-11-12T11:34:19;12.15;;;5.15;;
2680;SDS011;1350;42.134;24.708;2022-11-12T11:36:55;8.77;;;5.57;;
2680;SDS011;1350;42.134;24.708;2022-11-12T11:39:31;9.10;;;6.32;;
2680;SDS011;1350;42.134;24.708;2022-11-12T11:42:11;11.13;;;6.32;;
2680;SDS011;1350;42.134;24.708;2022-11-12T11:44:53;10.70;;;5.45;;
2680;SDS011;1350;42.134;24.708;2022-11-12T11:47:31;9.52;;;4.60;;
2680;SDS011;1350;42.134;24.708;2022-11-12T11:50:13;7.07;;;4.55;;
2680;SDS011;1350;42.134;24.708;2022-11-12T11:52:48;8.10;;;4.85;;
2680;SDS011;1350;42.134;24.708;2022-11-12T11:55:27;9.98;;;5.10;;
2680;SDS011;1350;42.134;24.708;2022-11-12T11:58:05;8.18;;;4.70;;
2680;SDS011;1350;42.134;24.708;2022-11-12T12:00:41;9.65;;;5.05;;
2680;SDS011;1350;42.134;24.708;2022-11-12T12:03:16;8.23;;;5.30;;
2680;SDS011;1350;42.134;24.708;2022-11-12T12:05:49;7.93;;;4.88;;
2680;SDS011;1350;42.134;24.708;2022-11-12T12:08:35;7.82;;;4.20;;
2680;SDS011;1350;42.134;24.708;2022-11-12T12:11:14;6.57;;;3.95;;
2680;SDS011;1350;42.134;24.708;2022-11-12T12:13:51;7.45;;;3.80;;
2680;SDS011;1350;42.134;24.708;2022-11-12T12:16:35;8.85;;;4.57;;
2680;SDS011;1350;42.134;24.708;2022-11-12T12:19:12;7.50;;;4.82;;
2680;SDS011;1350;42.134;24.708;2022-11-12T12:21:54;8.23;;;4.88;;
2680;SDS011;1350;42.134;24.708;2022-11-12T12:24:24;8.13;;;4.80;;
2680;SDS011;1350;42.134;24.708;2022-11-12T12:26:56;8.25;;;4.93;;
2680;SDS011;1350;42.134;24.708;2022-11-12T12:29:29;7.93;;;5.28;;
2680;SDS011;1350;42.134;24.708;2022-11-12T12:32:06;7.65;;;5.00;;
2680;SDS011;1350;42.134;24.708;2022-11-12T12:34:40;8.55;;;4.85;;
2680;SDS011;1350;42.134;24.708;2022-11-12T12:37:13;7.78;;;5.20;;
2680;SDS011;1350;42.134;24.708;2022-11-12T12:39:51;35.53;;;24.25;;
2680;SDS011;1350;42.134;24.708;2022-11-12T12:42:25;16.00;;;8.57;;
2680;SDS011;1350;42.134;24.708;2022-11-12T12:44:56;7.80;;;5.10;;
2680;SDS011;1350;42.134;24.708;2022-11-12T12:47:30;9.45;;;4.30;;
2680;SDS011;1350;42.134;24.708;2022-11-12T12:50:02;11.43;;;7.63;;
2680;SDS011;1350;42.134;24.708;2022-11-12T12:55:35;7.32;;;4.88;;
2680;SDS011;1350;42.134;24.708;2022-11-12T12:58:05;8.40;;;4.60;;
2680;SDS011;1350;42.134;24.708;2022-11-12T13:00:45;7.90;;;4.78;;
2680;SDS011;1350;42.134;24.708;2022-11-12T13:03:14;9.50;;;4.68;;
2680;SDS011;1350;42.134;24.708;2022-11-12T13:06:13;12.75;;;5.63;;
2680;SDS011;1350;42.134;24.708;2022-11-12T13:08:48;10.73;;;5.95;;
2680;SDS011;1350;42.134;24.708;2022-11-12T13:17:49;11.40;;;7.15;;
2680;SDS011;1350;42.134;24.708;2022-11-12T13:20:30;11.73;;;7.70;;
2680;SDS011;1350;42.134;24.708;2022-11-12T13:23:01;10.50;;;6.75;;
2680;SDS011;1350;42.134;24.708;2022-11-12T13:25:32;9.27;;;6.10;;
2680;SDS011;1350;42.134;24.708;2022-11-12T13:28:08;8.85;;;5.85;;
2680;SDS011;1350;42.134;24.708;2022-11-12T13:33:28;10.82;;;7.22;;
2680;SDS011;1350;42.134;24.708;2022-11-12T13:36:21;9.68;;;6.38;;
2680;SDS011;1350;42.134;24.708;2022-11-12T13:38:51;10.65;;;7.30;;
2680;SDS011;1350;42.134;24.708;2022-11-12T13:41:20;10.88;;;7.20;;
2680;SDS011;1350;42.134;24.708;2022-11-12T13:44:11;10.95;;;6.72;;
2680;SDS011;1350;42.134;24.708;2022-11-12T13:46:42;10.05;;;7.40;;
2680;SDS011;1350;42.134;24.708;2022-11-12T13:49:10;13.88;;;7.93;;
2680;SDS011;1350;42.134;24.708;2022-11-12T13:51:41;13.00;;;8.85;;
2680;SDS011;1350;42.134;24.708;2022-11-12T13:54:27;13.80;;;9.48;;
2680;SDS011;1350;42.134;24.708;2022-11-12T13:59:55;12.77;;;8.65;;
2680;SDS011;1350;42.134;24.708;2022-11-12T14:02:34;17.20;;;10.63;;
2680;SDS011;1350;42.134;24.708;2022-11-12T14:05:10;17.92;;;13.35;;
2680;SDS011;1350;42.134;24.708;2022-11-12T14:07:42;18.05;;;14.00;;
2680;SDS011;1350;42.134;24.708;2022-11-12T14:10:18;10.57;;;7.75;;
2680;SDS011;1350;42.134;24.708;2022-11-12T14:13:04;12.43;;;8.32;;
2680;SDS011;1350;42.134;24.708;2022-11-12T14:15:49;17.55;;;11.02;;
2680;SDS011;1350;42.134;24.708;2022-11-12T14:18:32;13.57;;;8.95;;
2680;SDS011;1350;42.134;24.708;2022-11-12T14:21:10;13.23;;;8.38;;
2680;SDS011;1350;42.134;24.708;2022-11-12T14:23:40;11.63;;;6.85;;
2680;SDS011;1350;42.134;24.708;2022-11-12T14:26:11;18.10;;;6.30;;
2680;SDS011;1350;42.134;24.708;2022-11-12T14:28:39;10.52;;;6.20;;
2680;SDS011;1350;42.134;24.708;2022-11-12T14:31:12;17.13;;;8.48;;
2680;SDS011;1350;42.134;24.708;2022-11-12T14:33:40;10.27;;;6.60;;
2680;SDS011;1350;42.134;24.708;2022-11-12T14:36:09;8.27;;;5.43;;
2680;SDS011;1350;42.134;24.708;2022-11-12T14:38:40;12.25;;;7.45;;
2680;SDS011;1350;42.134;24.708;2022-11-12T14:41:10;10.65;;;6.50;;
2680;SDS011;1350;42.134;24.708;2022-11-12T14:43:44;10.63;;;6.25;;
2680;SDS011;1350;42.134;24.708;2022-11-12T14:46:24;11.07;;;6.63;;
2680;SDS011;1350;42.134;24.708;2022-11-12T14:48:55;10.95;;;7.18;;
2680;SDS011;1350;42.134;24.708;2022-11-12T14:51:25;10.82;;;6.65;;
2680;SDS011;1350;42.134;24.708;2022-11-12T14:53:56;10.20;;;7.18;;
2680;SDS011;1350;42.134;24.708;2022-11-12T14:56:28;10.68;;;6.43;;
2680;SDS011;1350;42.134;24.708;2022-11-12T14:58:59;10.95;;;6.22;;
2680;SDS011;1350;42.134;24.708;2022-11-12T15:01:28;10.35;;;6.88;;
2680;SDS011;1350;42.134;24.708;2022-11-12T15:04:02;12.02;;;8.27;;
2680;SDS011;1350;42.134;24.708;2022-11-12T15:06:30;11.30;;;7.10;;
2680;SDS011;1350;42.134;24.708;2022-11-12T15:08:58;9.93;;;6.38;;
2680;SDS011;1350;42.134;24.708;2022-11-12T15:11:25;12.07;;;6.50;;
2680;SDS011;1350;42.134;24.708;2022-11-12T15:13:55;8.88;;;5.88;;
2680;SDS011;1350;42.134;24.708;2022-11-12T15:16:30;8.98;;;6.00;;
2680;SDS011;1350;42.134;24.708;2022-11-12T15:19:02;9.82;;;5.65;;
2680;SDS011;1350;42.134;24.708;2022-11-12T15:21:34;10.85;;;7.35;;
2680;SDS011;1350;42.134;24.708;2022-11-12T15:24:04;10.75;;;6.20;;
2680;SDS011;1350;42.134;24.708;2022-11-12T15:26:41;9.32;;;5.57;;
2680;SDS011;1350;42.134;24.708;2022-11-12T15:29:17;7.97;;;5.57;;
2680;SDS011;1350;42.134;24.708;2022-11-12T15:31:50;8.52;;;5.53;;